Stanley, ID

8:05 AM MDT on August 01, 2014 (GMT -0600)
Stanley (KSNT) Elev 6496 ft | 44.17 °N, 114.93 °W | Change Station

Current weather conditions updated 14 minutes ago

Thunderstorm
Thunderstorm
49 °F
Feels Like 49 °F
N
4
Wind Variable Wind from ENE
Gusts 7 mph

Today is forecast to be Cooler than yesterday. Isolated thunderstorms.

Today
High -- | Low -- °F
--% Chance of Precip.
Yesterday
High -- | Low -- °F
Precip. -- in
6:26 AM 9:04 PM
Waxing Crescent, 26% visible
Pressure 30.12 in
Visibility -9999.0 miles
Clouds
Dew Point 44 °F
Humidity 83%
Rainfall 0.00 in
Snow Depth 0 in
UV Not available.
Pollen 5.60 out of 12
Air Quality Not available.
Flu Activity Not available.
METAR KSNT 011351Z AUTO 06003KT 09/07 A3037 RMK AO1 SLP198 T00940067

More Conditions Fewer Conditions

Pressure 30.12 in
Visibility -9999.0 miles
Clouds
Dew Point 44 °F
Humidity 83%
Rainfall 0.00 in
Snow Depth 0 in
UV Not available.
Pollen 5.60 out of 12
Air Quality Not available.
Flu Activity Not available.
METAR KSNT 011351Z AUTO 06003KT 09/07 A3037 RMK AO1 SLP198 T00940067

More Conditions Fewer Conditions

10-Day Weather Forecast

Almanac

Astronomy

Aug. 01, 2014 Rise Set
Actual Time 6:26 AM MDT 9:04 PM MDT
Civil Twilight 5:53 AM MDT 9:37 PM MDT
Nautical Twilight 5:11 AM MDT 10:18 PM MDT
Astronomical Twilight 4:23 AM MDT 11:06 PM MDT
Moon 12:09 PM MDT 11:35 PM MDT
Length of Visible Light 15h 43m
Length of Day
14h 37m
Tomorrow will be 2m 23s shorter.
Waxing Crescent, 26% of the Moon is Illuminated
Today
Waxing Crescent
Aug 3
First Quarter
Aug 10
Full
Aug 17
Last Quarter
Aug 25
New

Today's Extremes

State Highs State Lows

Community

WunderPhotos

Upload Photos

1,739,574 photos uploaded!

Nearby

Snow Depth

Station Depth Elevation
Banner Summit 0 in 7040 ft
Mill Creek Summit 1 in 8800 ft
Galena 1 in 7440 ft
Galena Summit 0 in 8780 ft
Jackson Peak 1 in 7070 ft

Earthquake Activity

City Distance Mag. Time & Date
No recent earthquake activity has been reported nearby.
Minimum magnitude displayed is 2.5.

Coastal Water Temperatures

Place Temperature
No Stations Reporting

Nearby Weather Stations

Station Location Temp. Windchill Dew Point Humidity Wind Precip. Elev Updated Type
RAWS BANNER SUMMIT ID, Stanley, ID 46 °F 46 °F 43 °F 88% North  at  - 0.00 in / hr 7100 ft 6:51 AM MDT MADIS
RAWS CANYON CREEK ID, Lowman, ID 55 °F - 38 °F 52% SSW  at  8 mph 0.00 in / hr 8500 ft 7:19 AM MDT MADIS
APRSWXNET Obsidian ID , Ketchum, ID 40 °F 40 °F 38 °F 93% SSE  at  0 mph 0.00 in / hr 6774 ft 7:33 AM MDT MADIS
RAWS BONANZA ID, Stanley, ID 46 °F 46 °F 42 °F 86% North  at  1 mph 0.00 in / hr 6425 ft 6:50 AM MDT MADIS
RAWS STANLEY ID, Stanley, ID 43 °F 43 °F 42 °F 95% SSW  at  3 mph 0.00 in / hr 6286 ft 6:39 AM MDT MADIS
RAWS FOX TRAIL RIDGE ID, Lowman, ID 56 °F - 45 °F 66% North  at  - 0.00 in / hr 6014 ft 7:25 AM MDT MADIS

Show More Stations Show Fewer Stations